sensor_id;sensor_type;location;lat;lon;timestamp;pressure;altitude;pressure_sealevel;temperature;humidity
55217;BME280;41086;46.736;15.666;2022-07-11T00:01:22;98963.63;;;12.37;100.00
55217;BME280;41086;46.736;15.666;2022-07-11T00:03:49;98972.88;;;12.31;100.00
55217;BME280;41086;46.736;15.666;2022-07-11T00:06:15;98973.09;;;12.28;100.00
55217;BME280;41086;46.736;15.666;2022-07-11T00:08:42;98968.09;;;12.24;100.00
55217;BME280;41086;46.736;15.666;2022-07-11T00:11:08;98971.91;;;12.19;100.00
55217;BME280;41086;46.736;15.666;2022-07-11T00:13:35;98973.94;;;12.16;100.00
55217;BME280;41086;46.736;15.666;2022-07-11T00:16:02;98971.47;;;12.13;100.00
55217;BME280;41086;46.736;15.666;2022-07-11T00:18:34;98973.78;;;12.05;100.00
55217;BME280;41086;46.736;15.666;2022-07-11T00:21:00;98967.91;;;12.00;100.00
55217;BME280;41086;46.736;15.666;2022-07-11T00:23:27;98969.09;;;11.95;100.00
55217;BME280;41086;46.736;15.666;2022-07-11T00:25:54;98972.72;;;11.94;100.00
55217;BME280;41086;46.736;15.666;2022-07-11T00:28:21;98977.47;;;11.89;100.00
55217;BME280;41086;46.736;15.666;2022-07-11T00:30:47;98976.13;;;11.82;100.00
55217;BME280;41086;46.736;15.666;2022-07-11T00:33:14;98968.28;;;11.81;100.00
55217;BME280;41086;46.736;15.666;2022-07-11T00:35:41;98966.84;;;11.75;100.00
55217;BME280;41086;46.736;15.666;2022-07-11T00:38:07;98965.56;;;11.68;100.00
55217;BME280;41086;46.736;15.666;2022-07-11T00:40:34;98965.66;;;11.66;100.00
55217;BME280;41086;46.736;15.666;2022-07-11T00:43:02;98974.47;;;11.67;100.00
55217;BME280;41086;46.736;15.666;2022-07-11T00:45:29;98972.13;;;11.62;100.00
55217;BME280;41086;46.736;15.666;2022-07-11T00:47:55;98970.72;;;11.57;100.00
55217;BME280;41086;46.736;15.666;2022-07-11T00:50:23;98972.84;;;11.51;100.00
55217;BME280;41086;46.736;15.666;2022-07-11T00:52:51;98965.38;;;11.44;100.00
55217;BME280;41086;46.736;15.666;2022-07-11T00:55:18;98963.19;;;11.36;100.00
55217;BME280;41086;46.736;15.666;2022-07-11T00:57:45;98973.38;;;11.29;100.00
55217;BME280;41086;46.736;15.666;2022-07-11T01:00:11;98971.94;;;11.24;100.00
55217;BME280;41086;46.736;15.666;2022-07-11T01:02:39;98973.19;;;11.18;100.00
55217;BME280;41086;46.736;15.666;2022-07-11T01:05:06;98972.44;;;11.16;100.00
55217;BME280;41086;46.736;15.666;2022-07-11T01:07:32;98978.03;;;11.12;100.00
55217;BME280;41086;46.736;15.666;2022-07-11T01:09:59;98980.38;;;11.02;100.00
55217;BME280;41086;46.736;15.666;2022-07-11T01:12:26;98971.00;;;10.96;100.00
55217;BME280;41086;46.736;15.666;2022-07-11T01:14:53;98970.94;;;10.98;100.00
55217;BME280;41086;46.736;15.666;2022-07-11T01:17:20;98973.78;;;10.95;100.00
55217;BME280;41086;46.736;15.666;2022-07-11T01:19:46;98965.06;;;10.93;100.00
55217;BME280;41086;46.736;15.666;2022-07-11T01:22:13;98963.63;;;10.87;100.00
55217;BME280;41086;46.736;15.666;2022-07-11T01:24:41;98967.53;;;10.81;100.00
55217;BME280;41086;46.736;15.666;2022-07-11T01:27:07;98967.91;;;10.75;100.00
55217;BME280;41086;46.736;15.666;2022-07-11T01:29:35;98970.66;;;10.74;100.00
55217;BME280;41086;46.736;15.666;2022-07-11T01:32:01;98969.03;;;10.71;100.00
55217;BME280;41086;46.736;15.666;2022-07-11T01:34:28;98968.47;;;10.66;100.00
55217;BME280;41086;46.736;15.666;2022-07-11T01:36:55;98968.66;;;10.63;100.00
55217;BME280;41086;46.736;15.666;2022-07-11T01:39:21;98963.63;;;10.58;100.00
55217;BME280;41086;46.736;15.666;2022-07-11T01:41:48;98960.22;;;10.56;100.00
55217;BME280;41086;46.736;15.666;2022-07-11T01:44:15;98965.72;;;10.53;100.00
55217;BME280;41086;46.736;15.666;2022-07-11T01:46:41;98966.75;;;10.51;100.00
55217;BME280;41086;46.736;15.666;2022-07-11T01:49:08;98961.72;;;10.46;100.00
55217;BME280;41086;46.736;15.666;2022-07-11T01:51:35;98961.16;;;10.41;100.00
55217;BME280;41086;46.736;15.666;2022-07-11T01:54:02;98957.00;;;10.37;100.00
55217;BME280;41086;46.736;15.666;2022-07-11T01:56:28;98964.06;;;10.36;100.00
55217;BME280;41086;46.736;15.666;2022-07-11T01:58:59;98967.59;;;10.37;100.00
55217;BME280;41086;46.736;15.666;2022-07-11T02:01:26;98965.88;;;10.36;100.00
55217;BME280;41086;46.736;15.666;2022-07-11T02:03:53;98961.53;;;10.35;100.00
55217;BME280;41086;46.736;15.666;2022-07-11T02:06:21;98958.03;;;10.34;100.00
55217;BME280;41086;46.736;15.666;2022-07-11T02:08:48;98963.50;;;10.31;100.00
55217;BME280;41086;46.736;15.666;2022-07-11T02:11:14;98959.34;;;10.27;100.00
55217;BME280;41086;46.736;15.666;2022-07-11T02:13:41;98965.81;;;10.21;100.00
55217;BME280;41086;46.736;15.666;2022-07-11T02:16:09;98962.59;;;10.16;100.00
55217;BME280;41086;46.736;15.666;2022-07-11T02:18:35;98962.19;;;10.08;100.00
55217;BME280;41086;46.736;15.666;2022-07-11T02:21:02;98969.47;;;10.05;100.00
55217;BME280;41086;46.736;15.666;2022-07-11T02:23:29;98961.72;;;10.02;100.00
55217;BME280;41086;46.736;15.666;2022-07-11T02:25:56;98952.22;;;9.97;100.00
55217;BME280;41086;46.736;15.666;2022-07-11T02:28:22;98968.28;;;9.94;100.00
55217;BME280;41086;46.736;15.666;2022-07-11T02:30:49;98961.47;;;9.90;100.00
55217;BME280;41086;46.736;15.666;2022-07-11T02:33:16;98973.19;;;9.86;100.00
55217;BME280;41086;46.736;15.666;2022-07-11T02:35:43;98972.53;;;9.83;100.00
55217;BME280;41086;46.736;15.666;2022-07-11T02:38:10;98973.44;;;9.82;100.00
55217;BME280;41086;46.736;15.666;2022-07-11T02:40:36;98975.41;;;9.78;100.00
55217;BME280;41086;46.736;15.666;2022-07-11T02:43:03;98974.06;;;9.71;100.00
55217;BME280;41086;46.736;15.666;2022-07-11T02:45:30;98981.41;;;9.66;100.00
55217;BME280;41086;46.736;15.666;2022-07-11T02:47:56;98983.97;;;9.67;100.00
55217;BME280;41086;46.736;15.666;2022-07-11T02:50:23;98986.69;;;9.66;100.00
55217;BME280;41086;46.736;15.666;2022-07-11T02:52:50;98994.03;;;9.61;100.00
55217;BME280;41086;46.736;15.666;2022-07-11T02:55:16;98979.28;;;9.57;100.00
55217;BME280;41086;46.736;15.666;2022-07-11T02:57:43;98981.25;;;9.53;100.00
55217;BME280;41086;46.736;15.666;2022-07-11T03:00:12;98978.63;;;9.53;100.00
55217;BME280;41086;46.736;15.666;2022-07-11T03:02:39;98982.19;;;9.52;100.00
55217;BME280;41086;46.736;15.666;2022-07-11T03:05:05;98987.47;;;9.52;100.00
55217;BME280;41086;46.736;15.666;2022-07-11T03:07:32;98980.56;;;9.49;100.00
55217;BME280;41086;46.736;15.666;2022-07-11T03:09:59;98981.69;;;9.45;100.00
55217;BME280;41086;46.736;15.666;2022-07-11T03:12:25;98994.31;;;9.40;100.00
55217;BME280;41086;46.736;15.666;2022-07-11T03:14:52;98983.13;;;9.35;100.00
55217;BME280;41086;46.736;15.666;2022-07-11T03:17:19;98990.56;;;9.28;100.00
55217;BME280;41086;46.736;15.666;2022-07-11T03:19:46;98982.94;;;9.22;100.00
55217;BME280;41086;46.736;15.666;2022-07-11T03:22:16;98981.31;;;9.20;100.00
55217;BME280;41086;46.736;15.666;2022-07-11T03:24:43;98972.66;;;9.18;100.00
55217;BME280;41086;46.736;15.666;2022-07-11T03:27:10;98985.69;;;9.21;100.00
55217;BME280;41086;46.736;15.666;2022-07-11T03:29:39;98992.91;;;9.17;100.00
55217;BME280;41086;46.736;15.666;2022-07-11T03:32:05;98991.28;;;9.15;100.00
55217;BME280;41086;46.736;15.666;2022-07-11T03:34:32;98983.81;;;9.07;100.00
55217;BME280;41086;46.736;15.666;2022-07-11T03:36:59;98986.75;;;9.01;100.00
55217;BME280;41086;46.736;15.666;2022-07-11T03:39:26;98989.69;;;8.96;100.00
55217;BME280;41086;46.736;15.666;2022-07-11T03:41:53;98990.53;;;8.97;100.00
55217;BME280;41086;46.736;15.666;2022-07-11T03:44:20;98991.13;;;9.02;100.00
55217;BME280;41086;46.736;15.666;2022-07-11T03:46:46;99000.94;;;9.00;100.00
55217;BME280;41086;46.736;15.666;2022-07-11T03:49:14;98997.16;;;8.88;100.00
55217;BME280;41086;46.736;15.666;2022-07-11T03:51:41;99001.91;;;8.81;100.00
55217;BME280;41086;46.736;15.666;2022-07-11T03:54:07;98998.97;;;8.87;100.00
55217;BME280;41086;46.736;15.666;2022-07-11T03:56:34;99002.31;;;9.07;100.00
55217;BME280;41086;46.736;15.666;2022-07-11T03:59:01;98976.81;;;9.22;100.00
55217;BME280;41086;46.736;15.666;2022-07-11T04:01:28;98985.41;;;9.25;100.00
55217;BME280;41086;46.736;15.666;2022-07-11T04:03:55;98990.38;;;9.16;100.00
55217;BME280;41086;46.736;15.666;2022-07-11T04:07:08;98985.25;;;9.13;100.00
55217;BME280;41086;46.736;15.666;2022-07-11T04:09:35;98985.41;;;9.25;100.00
55217;BME280;41086;46.736;15.666;2022-07-11T04:12:02;98976.66;;;9.41;100.00
55217;BME280;41086;46.736;15.666;2022-07-11T04:14:29;98988.25;;;9.54;100.00
55217;BME280;41086;46.736;15.666;2022-07-11T04:16:56;98985.94;;;9.64;100.00
55217;BME280;41086;46.736;15.666;2022-07-11T04:19:23;98987.72;;;9.63;100.00
55217;BME280;41086;46.736;15.666;2022-07-11T04:21:50;98994.97;;;9.60;100.00
55217;BME280;41086;46.736;15.666;2022-07-11T04:24:17;98987.22;;;9.57;100.00
55217;BME280;41086;46.736;15.666;2022-07-11T04:26:44;98978.75;;;9.66;100.00
55217;BME280;41086;46.736;15.666;2022-07-11T04:29:10;98979.75;;;9.79;100.00
55217;BME280;41086;46.736;15.666;2022-07-11T04:31:37;98987.09;;;9.90;100.00
55217;BME280;41086;46.736;15.666;2022-07-11T04:34:04;98977.53;;;9.87;100.00
55217;BME280;41086;46.736;15.666;2022-07-11T04:36:31;98987.59;;;9.96;100.00
55217;BME280;41086;46.736;15.666;2022-07-11T04:38:59;98975.88;;;10.01;100.00
55217;BME280;41086;46.736;15.666;2022-07-11T04:41:26;98979.59;;;10.12;100.00
55217;BME280;41086;46.736;15.666;2022-07-11T04:43:53;98963.16;;;10.21;100.00
55217;BME280;41086;46.736;15.666;2022-07-11T04:46:20;98963.03;;;10.39;100.00
55217;BME280;41086;46.736;15.666;2022-07-11T04:48:47;98963.22;;;10.50;100.00
55217;BME280;41086;46.736;15.666;2022-07-11T04:51:14;98969.88;;;10.72;100.00
55217;BME280;41086;46.736;15.666;2022-07-11T04:53:40;98976.31;;;10.82;100.00
55217;BME280;41086;46.736;15.666;2022-07-11T04:56:08;98976.81;;;10.89;100.00
55217;BME280;41086;46.736;15.666;2022-07-11T04:58:35;98976.88;;;11.01;100.00
55217;BME280;41086;46.736;15.666;2022-07-11T05:01:02;98977.06;;;11.13;100.00
55217;BME280;41086;46.736;15.666;2022-07-11T05:03:29;98980.97;;;11.21;100.00
55217;BME280;41086;46.736;15.666;2022-07-11T05:05:56;98983.09;;;11.29;100.00
55217;BME280;41086;46.736;15.666;2022-07-11T05:08:23;98987.84;;;11.38;100.00
55217;BME280;41086;46.736;15.666;2022-07-11T05:10:50;98994.91;;;11.52;100.00
55217;BME280;41086;46.736;15.666;2022-07-11T05:13:17;98995.06;;;11.63;100.00
55217;BME280;41086;46.736;15.666;2022-07-11T05:15:44;98990.75;;;11.75;100.00
55217;BME280;41086;46.736;15.666;2022-07-11T05:18:11;99001.38;;;11.89;100.00
55217;BME280;41086;46.736;15.666;2022-07-11T05:20:38;99001.41;;;12.02;100.00
55217;BME280;41086;46.736;15.666;2022-07-11T05:23:05;98993.38;;;12.16;100.00
55217;BME280;41086;46.736;15.666;2022-07-11T05:25:32;98977.31;;;12.18;100.00
55217;BME280;41086;46.736;15.666;2022-07-11T05:27:58;98995.97;;;12.44;100.00
55217;BME280;41086;46.736;15.666;2022-07-11T05:30:25;99002.25;;;12.55;100.00
55217;BME280;41086;46.736;15.666;2022-07-11T05:32:53;99001.44;;;12.68;100.00
55217;BME280;41086;46.736;15.666;2022-07-11T05:35:20;99008.25;;;12.84;100.00
55217;BME280;41086;46.736;15.666;2022-07-11T05:37:47;98997.16;;;12.91;100.00
55217;BME280;41086;46.736;15.666;2022-07-11T05:40:14;98983.53;;;12.95;100.00
55217;BME280;41086;46.736;15.666;2022-07-11T05:42:41;98995.97;;;13.20;100.00
55217;BME280;41086;46.736;15.666;2022-07-11T05:45:08;99001.59;;;13.41;100.00
55217;BME280;41086;46.736;15.666;2022-07-11T05:47:36;99006.03;;;13.53;100.00
55217;BME280;41086;46.736;15.666;2022-07-11T05:50:03;99004.63;;;13.61;100.00
55217;BME280;41086;46.736;15.666;2022-07-11T05:52:30;99004.69;;;13.72;100.00
55217;BME280;41086;46.736;15.666;2022-07-11T05:54:57;99010.19;;;13.82;100.00
55217;BME280;41086;46.736;15.666;2022-07-11T05:57:24;99005.25;;;13.88;100.00
55217;BME280;41086;46.736;15.666;2022-07-11T05:59:51;99003.50;;;14.00;100.00
55217;BME280;41086;46.736;15.666;2022-07-11T06:02:18;99000.31;;;14.19;100.00
55217;BME280;41086;46.736;15.666;2022-07-11T06:04:47;98993.81;;;14.34;100.00
55217;BME280;41086;46.736;15.666;2022-07-11T06:07:14;99000.91;;;14.47;100.00
55217;BME280;41086;46.736;15.666;2022-07-11T06:10:01;99000.81;;;14.59;100.00
55217;BME280;41086;46.736;15.666;2022-07-11T06:12:28;99001.47;;;14.63;100.00
55217;BME280;41086;46.736;15.666;2022-07-11T06:14:55;99007.31;;;14.79;100.00
55217;BME280;41086;46.736;15.666;2022-07-11T06:17:22;99002.47;;;14.96;100.00
55217;BME280;41086;46.736;15.666;2022-07-11T06:19:49;99008.16;;;15.02;100.00
55217;BME280;41086;46.736;15.666;2022-07-11T06:22:15;99005.38;;;15.15;100.00
55217;BME280;41086;46.736;15.666;2022-07-11T06:24:50;98996.88;;;15.21;100.00
55217;BME280;41086;46.736;15.666;2022-07-11T06:27:17;99001.25;;;15.45;100.00
55217;BME280;41086;46.736;15.666;2022-07-11T06:29:44;99005.25;;;15.50;100.00
55217;BME280;41086;46.736;15.666;2022-07-11T06:32:10;99003.38;;;15.62;100.00
55217;BME280;41086;46.736;15.666;2022-07-11T06:34:38;99001.66;;;15.84;100.00
55217;BME280;41086;46.736;15.666;2022-07-11T06:37:05;99004.25;;;16.06;100.00
55217;BME280;41086;46.736;15.666;2022-07-11T06:39:32;99008.97;;;16.14;100.00
55217;BME280;41086;46.736;15.666;2022-07-11T06:41:58;99015.91;;;16.16;100.00
55217;BME280;41086;46.736;15.666;2022-07-11T06:44:25;99005.63;;;16.33;100.00
55217;BME280;41086;46.736;15.666;2022-07-11T06:46:54;99013.41;;;16.57;100.00
55217;BME280;41086;46.736;15.666;2022-07-11T06:49:21;99013.50;;;16.55;100.00
55217;BME280;41086;46.736;15.666;2022-07-11T06:51:48;99007.72;;;16.71;100.00
55217;BME280;41086;46.736;15.666;2022-07-11T06:54:15;99007.31;;;16.76;100.00
55217;BME280;41086;46.736;15.666;2022-07-11T06:56:42;99002.50;;;16.91;100.00
55217;BME280;41086;46.736;15.666;2022-07-11T06:59:08;99004.56;;;17.08;100.00
55217;BME280;41086;46.736;15.666;2022-07-11T07:01:35;99015.47;;;17.16;100.00
55217;BME280;41086;46.736;15.666;2022-07-11T07:04:02;99012.25;;;17.22;100.00
55217;BME280;41086;46.736;15.666;2022-07-11T07:06:29;99017.81;;;17.40;100.00
55217;BME280;41086;46.736;15.666;2022-07-11T07:08:56;99011.63;;;17.49;100.00
55217;BME280;41086;46.736;15.666;2022-07-11T07:11:23;99014.06;;;17.62;100.00
55217;BME280;41086;46.736;15.666;2022-07-11T07:13:49;99013.22;;;18.02;100.00
55217;BME280;41086;46.736;15.666;2022-07-11T07:16:17;99008.84;;;18.30;100.00
55217;BME280;41086;46.736;15.666;2022-07-11T07:18:44;99012.63;;;18.47;100.00
55217;BME280;41086;46.736;15.666;2022-07-11T07:21:13;99002.03;;;18.55;91.95
55217;BME280;41086;46.736;15.666;2022-07-11T07:23:40;99016.72;;;18.80;91.97
55217;BME280;41086;46.736;15.666;2022-07-11T07:26:07;99009.53;;;18.81;74.77
55217;BME280;41086;46.736;15.666;2022-07-11T07:28:34;99007.63;;;19.01;63.20
55217;BME280;41086;46.736;15.666;2022-07-11T07:31:00;99006.50;;;18.94;54.37
55217;BME280;41086;46.736;15.666;2022-07-11T07:33:27;99006.97;;;18.89;51.89
55217;BME280;41086;46.736;15.666;2022-07-11T07:36:10;99017.00;;;18.87;56.30
55217;BME280;41086;46.736;15.666;2022-07-11T07:38:37;99007.56;;;19.20;52.80
55217;BME280;41086;46.736;15.666;2022-07-11T07:41:03;99004.66;;;19.59;51.14
55217;BME280;41086;46.736;15.666;2022-07-11T07:43:30;99002.31;;;20.02;51.83
55217;BME280;41086;46.736;15.666;2022-07-11T07:45:57;99002.25;;;20.47;52.12
55217;BME280;41086;46.736;15.666;2022-07-11T07:48:24;99000.53;;;20.82;58.25
55217;BME280;41086;46.736;15.666;2022-07-11T07:50:57;98995.66;;;21.12;50.40
55217;BME280;41086;46.736;15.666;2022-07-11T07:53:24;98997.78;;;20.56;48.47
55217;BME280;41086;46.736;15.666;2022-07-11T07:55:50;99003.47;;;19.99;49.09
55217;BME280;41086;46.736;15.666;2022-07-11T07:58:18;98996.84;;;19.93;49.58
55217;BME280;41086;46.736;15.666;2022-07-11T08:00:44;99000.28;;;19.68;46.77
55217;BME280;41086;46.736;15.666;2022-07-11T08:03:29;98997.97;;;19.73;52.86
55217;BME280;41086;46.736;15.666;2022-07-11T08:05:57;98992.19;;;19.96;46.85
55217;BME280;41086;46.736;15.666;2022-07-11T08:08:24;98987.78;;;20.48;45.54
55217;BME280;41086;46.736;15.666;2022-07-11T08:10:50;98981.31;;;21.11;44.80
55217;BME280;41086;46.736;15.666;2022-07-11T08:13:18;98983.16;;;21.11;42.21
55217;BME280;41086;46.736;15.666;2022-07-11T08:15:46;98983.50;;;21.08;44.46
55217;BME280;41086;46.736;15.666;2022-07-11T08:18:13;98983.25;;;21.27;44.94
55217;BME280;41086;46.736;15.666;2022-07-11T08:20:40;98978.66;;;21.19;44.52
55217;BME280;41086;46.736;15.666;2022-07-11T08:23:07;98980.41;;;21.29;45.92
55217;BME280;41086;46.736;15.666;2022-07-11T08:25:34;98989.97;;;21.23;43.92
55217;BME280;41086;46.736;15.666;2022-07-11T08:28:00;98986.41;;;20.88;52.08
55217;BME280;41086;46.736;15.666;2022-07-11T08:30:27;98985.88;;;21.11;45.77
55217;BME280;41086;46.736;15.666;2022-07-11T08:32:54;98990.00;;;20.97;46.67
55217;BME280;41086;46.736;15.666;2022-07-11T08:35:21;98985.31;;;20.99;44.14
55217;BME280;41086;46.736;15.666;2022-07-11T08:37:48;98983.69;;;21.40;46.64
55217;BME280;41086;46.736;15.666;2022-07-11T08:40:14;98986.22;;;22.09;43.11
55217;BME280;41086;46.736;15.666;2022-07-11T08:42:43;98975.44;;;22.83;43.03
55217;BME280;41086;46.736;15.666;2022-07-11T08:45:15;98978.47;;;23.52;44.96
55217;BME280;41086;46.736;15.666;2022-07-11T08:47:43;98991.00;;;23.92;44.02
55217;BME280;41086;46.736;15.666;2022-07-11T08:50:12;98983.28;;;24.04;39.45
55217;BME280;41086;46.736;15.666;2022-07-11T08:52:39;98987.53;;;24.29;38.39
55217;BME280;41086;46.736;15.666;2022-07-11T08:55:06;98997.91;;;23.95;39.98
55217;BME280;41086;46.736;15.666;2022-07-11T08:57:35;98977.81;;;23.50;38.09
55217;BME280;41086;46.736;15.666;2022-07-11T09:00:04;98986.03;;;23.73;39.12
55217;BME280;41086;46.736;15.666;2022-07-11T09:02:33;98986.81;;;23.81;42.09
55217;BME280;41086;46.736;15.666;2022-07-11T09:05:01;98982.97;;;23.67;38.38
55217;BME280;41086;46.736;15.666;2022-07-11T09:07:33;98988.38;;;23.67;39.12
55217;BME280;41086;46.736;15.666;2022-07-11T09:10:00;98988.53;;;23.66;40.38
55217;BME280;41086;46.736;15.666;2022-07-11T09:12:27;98981.16;;;23.91;41.03
55217;BME280;41086;46.736;15.666;2022-07-11T09:14:54;98981.53;;;24.34;43.23
55217;BME280;41086;46.736;15.666;2022-07-11T09:17:25;98974.50;;;24.71;39.72
55217;BME280;41086;46.736;15.666;2022-07-11T09:19:55;98977.16;;;24.56;40.16
55217;BME280;41086;46.736;15.666;2022-07-11T09:22:22;98975.56;;;24.24;36.72
55217;BME280;41086;46.736;15.666;2022-07-11T09:25:10;98975.41;;;23.94;41.50
55217;BME280;41086;46.736;15.666;2022-07-11T09:28:03;98976.56;;;23.60;40.09
55217;BME280;41086;46.736;15.666;2022-07-11T09:30:37;98972.34;;;23.97;38.50
55217;BME280;41086;46.736;15.666;2022-07-11T09:33:08;98974.50;;;24.02;38.85
55217;BME280;41086;46.736;15.666;2022-07-11T09:35:37;98974.38;;;23.56;40.95
55217;BME280;41086;46.736;15.666;2022-07-11T09:38:06;98972.41;;;22.86;40.65
55217;BME280;41086;46.736;15.666;2022-07-11T09:40:34;98976.50;;;22.57;43.67
55217;BME280;41086;46.736;15.666;2022-07-11T09:43:01;98963.97;;;22.89;41.30
55217;BME280;41086;46.736;15.666;2022-07-11T09:45:30;98966.44;;;23.15;39.67
55217;BME280;41086;46.736;15.666;2022-07-11T09:47:58;98967.31;;;23.15;40.49
55217;BME280;41086;46.736;15.666;2022-07-11T09:50:30;98963.06;;;23.21;42.58
55217;BME280;41086;46.736;15.666;2022-07-11T09:53:04;98968.09;;;23.32;41.24
55217;BME280;41086;46.736;15.666;2022-07-11T09:55:37;98959.28;;;23.30;40.29
55217;BME280;41086;46.736;15.666;2022-07-11T09:58:28;98959.56;;;22.96;40.92
55217;BME280;41086;46.736;15.666;2022-07-11T10:00:55;98961.84;;;23.32;38.81
55217;BME280;41086;46.736;15.666;2022-07-11T10:03:23;98960.69;;;23.97;40.47
55217;BME280;41086;46.736;15.666;2022-07-11T10:06:12;98953.25;;;23.91;39.87
55217;BME280;41086;46.736;15.666;2022-07-11T10:08:38;98959.13;;;24.02;40.29
55217;BME280;41086;46.736;15.666;2022-07-11T10:11:05;98954.19;;;24.52;41.08
55217;BME280;41086;46.736;15.666;2022-07-11T10:13:32;98952.72;;;24.94;38.63
55217;BME280;41086;46.736;15.666;2022-07-11T10:16:00;98952.06;;;25.51;38.25
55217;BME280;41086;46.736;15.666;2022-07-11T10:21:38;98937.50;;;25.52;35.18
55217;BME280;41086;46.736;15.666;2022-07-11T10:27:06;98933.56;;;25.91;37.05
55217;BME280;41086;46.736;15.666;2022-07-11T10:29:46;98934.28;;;26.43;38.08
55217;BME280;41086;46.736;15.666;2022-07-11T10:32:16;98945.09;;;26.58;37.82
55217;BME280;41086;46.736;15.666;2022-07-11T10:34:43;98935.50;;;26.40;36.55
55217;BME280;41086;46.736;15.666;2022-07-11T10:37:11;98943.47;;;26.63;36.65
55217;BME280;41086;46.736;15.666;2022-07-11T10:39:39;98944.94;;;26.66;35.84
55217;BME280;41086;46.736;15.666;2022-07-11T10:42:37;98938.38;;;27.16;35.47
55217;BME280;41086;46.736;15.666;2022-07-11T10:45:07;98920.66;;;26.36;35.32
55217;BME280;41086;46.736;15.666;2022-07-11T10:47:44;98934.63;;;26.12;37.81
55217;BME280;41086;46.736;15.666;2022-07-11T10:50:35;98936.19;;;26.49;36.71
55217;BME280;41086;46.736;15.666;2022-07-11T10:53:08;98936.25;;;26.77;35.39
55217;BME280;41086;46.736;15.666;2022-07-11T10:55:38;98930.59;;;27.07;35.98
55217;BME280;41086;46.736;15.666;2022-07-11T10:58:25;98931.06;;;26.82;33.80
55217;BME280;41086;46.736;15.666;2022-07-11T11:03:39;98921.66;;;25.71;35.61
55217;BME280;41086;46.736;15.666;2022-07-11T11:06:07;98913.47;;;25.85;36.57
55217;BME280;41086;46.736;15.666;2022-07-11T11:16:42;98909.97;;;25.92;35.94
55217;BME280;41086;46.736;15.666;2022-07-11T11:22:15;98904.09;;;27.22;35.03
55217;BME280;41086;46.736;15.666;2022-07-11T11:24:43;98904.06;;;27.70;33.07
55217;BME280;41086;46.736;15.666;2022-07-11T11:27:29;98904.97;;;27.84;32.56
55217;BME280;41086;46.736;15.666;2022-07-11T11:29:57;98913.59;;;28.01;31.91
55217;BME280;41086;46.736;15.666;2022-07-11T11:32:32;98911.53;;;28.16;32.62
55217;BME280;41086;46.736;15.666;2022-07-11T11:35:00;98904.81;;;28.39;34.08
55217;BME280;41086;46.736;15.666;2022-07-11T11:37:27;98911.97;;;28.26;32.71
55217;BME280;41086;46.736;15.666;2022-07-11T11:39:59;98901.47;;;28.37;30.62
55217;BME280;41086;46.736;15.666;2022-07-11T11:42:28;98910.53;;;27.62;31.93
55217;BME280;41086;46.736;15.666;2022-07-11T11:44:58;98904.25;;;27.62;33.30
55217;BME280;41086;46.736;15.666;2022-07-11T11:47:35;98903.00;;;27.58;31.83
55217;BME280;41086;46.736;15.666;2022-07-11T11:50:03;98896.75;;;27.71;33.28
55217;BME280;41086;46.736;15.666;2022-07-11T11:52:32;98895.56;;;28.00;32.38
55217;BME280;41086;46.736;15.666;2022-07-11T11:55:02;98886.59;;;28.26;30.82
55217;BME280;41086;46.736;15.666;2022-07-11T11:57:31;98886.59;;;28.33;29.99
55217;BME280;41086;46.736;15.666;2022-07-11T11:59:59;98895.84;;;28.45;30.49
55217;BME280;41086;46.736;15.666;2022-07-11T12:02:30;98895.00;;;28.51;30.50
55217;BME280;41086;46.736;15.666;2022-07-11T12:04:58;98888.25;;;28.40;30.70
55217;BME280;41086;46.736;15.666;2022-07-11T12:07:29;98892.88;;;28.60;29.07
55217;BME280;41086;46.736;15.666;2022-07-11T12:09:57;98883.22;;;28.70;30.50
55217;BME280;41086;46.736;15.666;2022-07-11T12:12:28;98876.03;;;28.96;30.21
55217;BME280;41086;46.736;15.666;2022-07-11T12:15:32;98888.91;;;28.62;29.70
55217;BME280;41086;46.736;15.666;2022-07-11T12:18:19;98892.25;;;28.44;34.07
55217;BME280;41086;46.736;15.666;2022-07-11T12:20:46;98885.94;;;28.11;31.44
55217;BME280;41086;46.736;15.666;2022-07-11T12:23:17;98882.09;;;27.78;31.91
55217;BME280;41086;46.736;15.666;2022-07-11T12:25:50;98884.78;;;27.58;31.60
55217;BME280;41086;46.736;15.666;2022-07-11T12:28:19;98881.31;;;27.23;33.46
55217;BME280;41086;46.736;15.666;2022-07-11T12:30:54;98883.81;;;26.55;32.19
55217;BME280;41086;46.736;15.666;2022-07-11T12:33:22;98878.19;;;26.91;34.58
55217;BME280;41086;46.736;15.666;2022-07-11T12:36:01;98882.59;;;27.34;36.43
55217;BME280;41086;46.736;15.666;2022-07-11T12:38:50;98874.53;;;27.12;31.94
55217;BME280;41086;46.736;15.666;2022-07-11T12:41:20;98870.69;;;26.65;32.35
55217;BME280;41086;46.736;15.666;2022-07-11T12:43:49;98864.69;;;25.92;35.43
55217;BME280;41086;46.736;15.666;2022-07-11T12:46:39;98856.66;;;26.96;32.81
55217;BME280;41086;46.736;15.666;2022-07-11T12:49:10;98859.88;;;27.61;31.76
55217;BME280;41086;46.736;15.666;2022-07-11T12:51:47;98866.19;;;27.75;30.83
55217;BME280;41086;46.736;15.666;2022-07-11T12:54:15;98866.91;;;28.44;31.85
55217;BME280;41086;46.736;15.666;2022-07-11T12:56:54;98857.19;;;28.81;31.96
55217;BME280;41086;46.736;15.666;2022-07-11T12:59:25;98865.53;;;29.06;30.47
55217;BME280;41086;46.736;15.666;2022-07-11T13:02:05;98861.53;;;29.02;31.38
55217;BME280;41086;46.736;15.666;2022-07-11T13:04:37;98861.00;;;29.38;31.21
55217;BME280;41086;46.736;15.666;2022-07-11T13:07:23;98862.34;;;29.16;31.34
55217;BME280;41086;46.736;15.666;2022-07-11T13:10:23;98853.78;;;28.92;32.05
55217;BME280;41086;46.736;15.666;2022-07-11T13:12:52;98861.44;;;28.24;33.05
55217;BME280;41086;46.736;15.666;2022-07-11T13:15:21;98849.06;;;28.01;32.87